Time;durP1;ratioP1;P1;durP2;ratioP2;P2;SDS_P1;SDS_P2;PMS_P1;PMS_P2;Temp;Humidity;BMP_temperature;BMP_pressure;BME280_temperature;BME280_humidity;BME280_pressure;Samples;Min_cycle;Max_cycle;Signal;HPM_P1;HPM_P2
2023/10/17 00:01:50;;;;;;;8.82;1.77;;;36.30;25.40;;;;;;5011594;28;20014;-54
2023/10/17 00:06:50;;;;;;;5.55;1.40;;;36.20;25.70;;;;;;5019146;28;20029;-56
2023/10/17 00:09:26;;;;;;;7.45;1.70;;;36.10;25.40;;;;;;5007633;28;20025;-54
2023/10/17 00:14:35;;;;;;;8.85;1.50;;;36.00;26.20;;;;;;5008640;28;20016;-55
2023/10/17 00:17:06;;;;;;;9.60;1.98;;;35.90;26.10;;;;;;5006922;28;20014;-54
2023/10/17 00:19:32;;;;;;;9.82;3.67;;;35.90;26.10;;;;;;5027095;28;20036;-54
2023/10/17 00:22:03;;;;;;;10.73;5.28;;;35.70;26.30;;;;;;5007353;28;20046;-54
2023/10/17 00:24:29;;;;;;;17.73;9.73;;;35.70;26.40;;;;;;5007723;28;20389;-56
2023/10/17 00:26:56;;;;;;;8.38;2.67;;;35.60;26.40;;;;;;5019226;28;20014;-58
2023/10/17 00:29:23;;;;;;;9.52;2.17;;;35.50;26.80;;;;;;5008147;28;20022;-52
2023/10/17 00:31:49;;;;;;;7.40;1.50;;;35.40;26.20;;;;;;5016878;28;20128;-54
2023/10/17 00:34:16;;;;;;;7.25;1.30;;;35.40;26.30;;;;;;5007481;28;20516;-54
2023/10/17 00:36:49;;;;;;;4.65;1.13;;;35.30;26.30;;;;;;5013686;28;20021;-52
2023/10/17 00:39:29;;;;;;;4.65;1.60;;;35.10;26.90;;;;;;5012258;28;20014;-57
2023/10/17 00:42:28;;;;;;;6.13;1.65;;;35.00;26.60;;;;;;5017814;28;20014;-53
2023/10/17 00:44:44;;;;;;;4.38;1.50;;;34.90;26.70;;;;;;5031282;28;20036;-59
2023/10/17 00:47:11;;;;;;;9.98;2.00;;;34.80;27.30;;;;;;5016036;28;20064;-61
2023/10/17 00:49:44;;;;;;;8.70;1.75;;;34.70;26.90;;;;;;5017242;28;20045;-56
2023/10/17 00:52:24;;;;;;;7.50;1.85;;;34.60;27.30;;;;;;5012569;28;20455;-59
2023/10/17 00:54:53;;;;;;;15.30;1.75;;;34.40;27.60;;;;;;5016534;28;20024;-58
2023/10/17 00:57:32;;;;;;;19.95;2.25;;;34.40;28.50;;;;;;5017543;28;20117;-59
2023/10/17 01:00:35;;;;;;;14.00;1.83;;;34.20;28.50;;;;;;5022229;28;20102;-61
2023/10/17 01:02:52;;;;;;;10.00;2.00;;;34.00;28.80;;;;;;5017226;28;20583;-61
2023/10/17 01:05:20;;;;;;;17.00;2.28;;;33.80;28.90;;;;;;5025199;28;20043;-61
2023/10/17 01:07:47;;;;;;;11.55;2.05;;;33.60;28.80;;;;;;5014951;28;20128;-62
2023/10/17 01:10:13;;;;;;;16.48;2.90;;;33.40;29.00;;;;;;5014567;28;20053;-62
2023/10/17 01:13:27;;;;;;;29.92;3.28;;;33.20;29.50;;;;;;5014081;28;20482;-63
2023/10/17 01:15:28;;;;;;;25.33;3.30;;;33.10;29.80;;;;;;5013662;28;20054;-60
2023/10/17 01:17:57;;;;;;;119.35;9.93;;;32.90;30.10;;;;;;5017911;28;20055;-69
2023/10/17 01:20:24;;;;;;;35.85;4.40;;;32.80;30.70;;;;;;5019812;28;20519;-61
2023/10/17 01:22:56;;;;;;;23.70;3.63;;;32.70;30.70;;;;;;5014650;28;20131;-66
2023/10/17 01:25:26;;;;;;;28.45;3.55;;;32.60;31.00;;;;;;5011672;28;20089;-62
2023/10/17 01:27:54;;;;;;;27.98;3.78;;;32.40;31.40;;;;;;5010548;28;20144;-67
2023/10/17 01:30:23;;;;;;;32.88;4.45;;;32.20;32.20;;;;;;5016223;28;20046;-66
2023/10/17 01:32:51;;;;;;;27.52;4.93;;;32.10;32.50;;;;;;5020226;28;20062;-63
2023/10/17 01:35:19;;;;;;;45.22;5.72;;;32.00;32.80;;;;;;5009975;28;20038;-61
2023/10/17 01:37:47;;;;;;;34.85;6.18;;;31.90;33.40;;;;;;5022616;28;20045;-61
2023/10/17 01:40:25;;;;;;;45.92;5.72;;;31.80;34.10;;;;;;5012009;28;20050;-60
2023/10/17 01:42:53;;;;;;;26.35;5.00;;;31.60;34.00;;;;;;5013860;28;20097;-62
2023/10/17 01:45:25;;;;;;;27.65;5.38;;;31.50;34.60;;;;;;5012716;28;20056;-61
2023/10/17 01:47:52;;;;;;;31.35;5.95;;;31.50;34.40;;;;;;5016976;28;20150;-64
2023/10/17 01:50:26;;;;;;;44.97;5.25;;;31.40;34.40;;;;;;5016347;28;20049;-50
2023/10/17 01:52:53;;;;;;;27.83;4.72;;;32.30;34.00;;;;;;5009934;28;20073;-52
2023/10/17 01:55:29;;;;;;;32.47;4.65;;;32.70;33.40;;;;;;5011237;28;20412;-51
2023/10/17 01:57:59;;;;;;;41.20;5.30;;;33.10;32.80;;;;;;5026594;28;20039;-59
2023/10/17 02:02:54;;;;;;;42.35;4.72;;;33.20;33.30;;;;;;5009516;28;20412;-58
2023/10/17 02:05:24;;;;;;;43.30;5.15;;;33.20;32.70;;;;;;5010673;28;20010;-53
2023/10/17 02:07:51;;;;;;;19.25;4.57;;;33.10;33.10;;;;;;5010792;28;20105;-54
2023/10/17 02:10:20;;;;;;;45.22;5.70;;;33.10;33.40;;;;;;5010023;28;20099;-54
2023/10/17 02:12:48;;;;;;;32.45;5.47;;;33.10;33.70;;;;;;5009823;28;20119;-57
2023/10/17 02:15:23;;;;;;;29.45;5.78;;;33.20;33.40;;;;;;5010036;28;20069;-54
2023/10/17 02:17:51;;;;;;;41.03;6.60;;;33.30;34.30;;;;;;5010406;28;20044;-56
2023/10/17 02:20:30;;;;;;;41.53;7.28;;;32.90;34.30;;;;;;5009170;28;20087;-54
2023/10/17 02:23:49;;;;;;;45.22;7.93;;;32.90;34.50;;;;;;5009767;28;20153;-52
2023/10/17 02:25:50;;;;;;;49.58;7.85;;;32.60;34.70;;;;;;5010798;28;20058;-51
2023/10/17 02:28:16;;;;;;;50.40;8.52;;;32.60;34.70;;;;;;5009156;28;20084;-50
2023/10/17 02:30:45;;;;;;;59.22;8.32;;;32.60;34.70;;;;;;5010636;28;20466;-50
2023/10/17 02:33:17;;;;;;;51.83;8.43;;;32.70;34.70;;;;;;5011272;28;20142;-55
2023/10/17 02:36:07;;;;;;;62.40;7.85;;;32.70;34.60;;;;;;5010552;28;20048;-53
2023/10/17 02:38:33;;;;;;;56.05;8.52;;;32.70;34.80;;;;;;5009443;28;20043;-53
2023/10/17 02:41:01;;;;;;;44.95;8.55;;;32.60;35.00;;;;;;5010953;28;20065;-52
2023/10/17 02:43:28;;;;;;;56.58;8.52;;;32.40;35.30;;;;;;5020584;28;20144;-55
2023/10/17 02:46:04;;;;;;;58.13;9.68;;;32.40;35.30;;;;;;5008794;28;20086;-53
2023/10/17 02:48:37;;;;;;;46.10;9.05;;;32.10;35.80;;;;;;5009923;28;20075;-55
2023/10/17 02:53:55;;;;;;;60.88;10.43;;;32.00;35.20;;;;;;5009166;28;20451;-54
2023/10/17 02:56:26;;;;;;;57.72;9.38;;;31.90;35.60;;;;;;5008233;28;20042;-53
2023/10/17 02:59:06;;;;;;;54.13;9.65;;;31.80;35.90;;;;;;5008807;28;20058;-52
2023/10/17 03:01:36;;;;;;;77.22;22.33;;;31.70;36.20;;;;;;5017363;28;22088;-51
2023/10/17 03:04:08;;;;;;;84.30;23.67;;;31.60;36.20;;;;;;5008878;28;20152;-51
2023/10/17 03:06:44;;;;;;;89.05;23.92;;;31.50;36.00;;;;;;5019382;28;20083;-51
2023/10/17 03:09:34;;;;;;;80.20;23.63;;;31.40;36.10;;;;;;5016790;28;20559;-50
2023/10/17 03:17:08;;;;;;;83.30;29.23;;;31.00;36.60;;;;;;5019594;28;20060;-54
2023/10/17 03:19:35;;;;;;;89.93;32.08;;;31.00;36.80;;;;;;5016010;28;20050;-54
2023/10/17 03:22:24;;;;;;;92.63;37.15;;;30.90;36.90;;;;;;5013862;28;20644;-53
2023/10/17 03:24:51;;;;;;;93.38;42.53;;;30.80;37.10;;;;;;5015189;28;20080;-52
2023/10/17 03:27:37;;;;;;;118.43;57.20;;;30.70;37.80;;;;;;5010906;28;20544;-51
2023/10/17 03:30:14;;;;;;;107.03;58.63;;;30.70;37.60;;;;;;5028387;28;20123;-53
2023/10/17 03:38:36;;;;;;;92.43;44.22;;;30.30;38.90;;;;;;4965921;28;20448;-53
2023/10/17 03:41:15;;;;;;;110.18;42.40;;;30.30;39.10;;;;;;4964648;28;20072;-56
2023/10/17 03:43:51;;;;;;;103.05;34.45;;;30.30;39.30;;;;;;4957811;28;20063;-54
2023/10/17 03:46:25;;;;;;;91.05;24.15;;;30.10;40.10;;;;;;4965270;28;20212;-54
2023/10/17 03:48:57;;;;;;;82.20;21.25;;;30.00;40.00;;;;;;4964521;28;20063;-53
2023/10/17 03:51:27;;;;;;;82.60;17.30;;;29.90;39.60;;;;;;4955013;28;20087;-53
2023/10/17 03:53:58;;;;;;;83.38;16.00;;;29.70;39.30;;;;;;4953600;28;20086;-49
2023/10/17 03:56:35;;;;;;;79.10;15.27;;;29.50;39.20;;;;;;4949168;28;20065;-56
2023/10/17 04:01:48;;;;;;;69.32;14.63;;;29.40;39.60;;;;;;4954591;28;20093;-53
2023/10/17 04:04:32;;;;;;;64.72;14.95;;;29.20;39.30;;;;;;4962977;28;20168;-53
2023/10/17 04:07:01;;;;;;;78.28;16.30;;;29.10;40.20;;;;;;4956019;28;20127;-54
2023/10/17 04:09:31;;;;;;;81.95;14.68;;;29.10;41.00;;;;;;4965913;28;20067;-48
2023/10/17 04:12:03;;;;;;;78.95;16.77;;;29.00;41.20;;;;;;5014757;28;20126;-56
2023/10/17 04:14:33;;;;;;;108.57;21.58;;;29.00;39.80;;;;;;5009241;28;20071;-54
2023/10/17 04:17:03;;;;;;;86.65;18.15;;;28.90;40.80;;;;;;5009279;28;20533;-52
2023/10/17 04:19:32;;;;;;;97.82;19.35;;;28.80;41.00;;;;;;5008837;28;20082;-52
2023/10/17 04:27:44;;;;;;;98.05;19.55;;;28.70;41.10;;;;;;5009133;28;20096;-54
2023/10/17 04:29:50;;;;;;;81.63;18.67;;;28.60;41.50;;;;;;5012499;28;20066;-53
2023/10/17 04:32:19;;;;;;;83.43;18.63;;;28.50;41.60;;;;;;5014735;28;20077;-54
2023/10/17 04:34:46;;;;;;;99.68;19.48;;;28.50;41.90;;;;;;5008894;28;20464;-50
2023/10/17 04:37:17;;;;;;;95.55;20.50;;;28.40;42.50;;;;;;5009429;28;20117;-53
2023/10/17 04:39:50;;;;;;;92.03;19.67;;;28.40;42.50;;;;;;5007751;28;20122;-52
2023/10/17 04:42:26;;;;;;;91.47;19.77;;;28.40;42.50;;;;;;5009462;28;20074;-56
2023/10/17 04:44:55;;;;;;;80.75;19.15;;;28.30;42.50;;;;;;5009256;28;20067;-55
2023/10/17 04:49:53;;;;;;;94.13;19.70;;;28.20;43.60;;;;;;5009510;28;20569;-53
2023/10/17 04:53:03;;;;;;;79.22;22.20;;;28.10;43.60;;;;;;5008723;28;20175;-52
2023/10/17 04:55:22;;;;;;;100.82;20.77;;;28.00;43.30;;;;;;5015615;28;20080;-52
2023/10/17 05:00:42;;;;;;;101.57;22.02;;;27.90;43.40;;;;;;5011781;28;20064;-54
2023/10/17 05:06:18;;;;;;;106.80;20.30;;;27.80;43.90;;;;;;5010618;28;20129;-55
2023/10/17 06:17:53;;;;;;;33.08;10.45;;;26.90;42.50;;;;;;4970075;28;20137;-55
2023/10/17 06:20:27;;;;;;;41.00;11.70;;;26.90;43.70;;;;;;4970190;28;20443;-53
2023/10/17 06:23:23;;;;;;;33.92;11.52;;;26.80;43.10;;;;;;4978094;28;20104;-56
2023/10/17 06:30:05;;;;;;;36.05;10.20;;;26.70;45.60;;;;;;5019502;28;20151;-52
2023/10/17 06:34:00;;;;;;;29.75;11.02;;;26.60;44.80;;;;;;5020374;28;20593;-52
2023/10/17 06:36:30;;;;;;;41.40;10.40;;;26.50;44.40;;;;;;5019297;28;20085;-52
2023/10/17 06:38:57;;;;;;;28.52;8.93;;;26.40;43.90;;;;;;5021377;28;20072;-54
2023/10/17 06:42:04;;;;;;;24.02;8.98;;;26.40;44.40;;;;;;5020534;28;20067;-53
2023/10/17 06:44:26;;;;;;;28.98;7.53;;;26.40;44.70;;;;;;5020230;28;20089;-51
2023/10/17 06:46:56;;;;;;;28.33;7.95;;;26.40;44.20;;;;;;5018011;28;20075;-51
2023/10/17 06:52:40;;;;;;;21.60;6.88;;;26.40;44.40;;;;;;5018832;28;21128;-52
2023/10/17 06:54:53;;;;;;;25.83;7.40;;;26.40;45.50;;;;;;5017527;28;20110;-51
2023/10/17 06:57:19;;;;;;;19.30;5.50;;;26.30;45.30;;;;;;5024561;28;20067;-53
2023/10/17 07:00:04;;;;;;;12.93;5.63;;;26.30;46.40;;;;;;5020175;28;20079;-50
2023/10/17 07:02:34;;;;;;;25.45;5.45;;;26.30;45.60;;;;;;5021300;28;20507;-52
2023/10/17 07:05:01;;;;;;;18.17;5.38;;;26.30;45.70;;;;;;5019021;28;20504;-50
2023/10/17 07:07:38;;;;;;;19.63;5.43;;;26.30;45.70;;;;;;5019166;28;20489;-51
2023/10/17 07:10:24;;;;;;;22.70;4.65;;;26.30;45.60;;;;;;5021015;28;20540;-52
2023/10/17 07:13:29;;;;;;;20.33;4.93;;;26.20;45.90;;;;;;5017987;28;20107;-53
2023/10/17 07:15:55;;;;;;;16.58;4.95;;;26.20;46.60;;;;;;5013440;28;20095;-52
2023/10/17 07:18:55;;;;;;;25.10;5.93;;;26.10;47.20;;;;;;5017588;28;20081;-49
2023/10/17 07:23:45;;;;;;;19.77;4.82;;;26.00;47.30;;;;;;5018265;28;20137;-53
2023/10/17 07:28:59;;;;;;;19.48;5.20;;;25.90;47.40;;;;;;5019773;28;20542;-50
2023/10/17 07:31:28;;;;;;;22.05;5.00;;;25.80;47.40;;;;;;5020420;28;20083;-55
2023/10/17 07:34:37;;;;;;;27.75;5.07;;;25.80;47.80;;;;;;5017447;28;20260;-53
2023/10/17 07:36:47;;;;;;;20.88;5.45;;;25.80;48.20;;;;;;5013686;28;20097;-51
2023/10/17 07:39:24;;;;;;;19.17;4.88;;;25.80;48.20;;;;;;5018656;28;20117;-53
2023/10/17 07:41:54;;;;;;;17.13;4.10;;;25.80;48.30;;;;;;5018638;28;20070;-49
2023/10/17 07:44:27;;;;;;;20.75;4.65;;;25.80;48.40;;;;;;5016672;28;20082;-50
2023/10/17 07:49:38;;;;;;;18.20;4.45;;;25.70;48.60;;;;;;5019775;28;20105;-50
2023/10/17 07:52:12;;;;;;;19.27;3.92;;;25.70;48.80;;;;;;5019547;28;20084;-49
2023/10/17 07:57:40;;;;;;;16.30;4.15;;;25.60;48.60;;;;;;4994612;28;20594;-47
2023/10/17 08:03:15;;;;;;;28.75;4.60;;;25.50;48.70;;;;;;4967341;28;20502;-52
2023/10/17 08:05:54;;;;;;;24.70;4.32;;;25.40;48.60;;;;;;4969542;28;20091;-51
2023/10/17 08:08:23;;;;;;;24.67;4.68;;;25.30;49.20;;;;;;4968554;28;20097;-56
2023/10/17 08:10:51;;;;;;;14.45;4.05;;;25.20;49.60;;;;;;4967711;28;20080;-51
2023/10/17 08:13:19;;;;;;;17.45;4.00;;;25.10;49.70;;;;;;4969094;28;20113;-50
2023/10/17 08:15:53;;;;;;;15.40;3.80;;;25.10;49.60;;;;;;4969398;28;20085;-57
2023/10/17 08:18:25;;;;;;;17.98;4.55;;;25.00;49.60;;;;;;4968835;28;20099;-51
2023/10/17 08:21:33;;;;;;;16.25;3.97;;;25.10;50.00;;;;;;4968708;28;20086;-51
2023/10/17 08:23:40;;;;;;;13.93;3.73;;;25.00;50.10;;;;;;4968977;28;20139;-54
2023/10/17 08:26:17;;;;;;;19.65;4.50;;;25.10;50.40;;;;;;4968909;28;20377;-52
2023/10/17 08:33:57;;;;;;;13.88;4.18;;;24.90;51.80;;;;;;4993525;28;20151;-48
2023/10/17 08:41:57;;;;;;;18.67;4.63;;;24.70;50.80;;;;;;5017090;28;20079;-51
2023/10/17 08:44:31;;;;;;;11.32;4.15;;;24.80;50.20;;;;;;5016983;28;20560;-49
2023/10/17 08:46:58;;;;;;;14.30;3.63;;;24.70;50.20;;;;;;5017134;28;20117;-51
2023/10/17 08:49:28;;;;;;;11.15;3.53;;;24.70;50.10;;;;;;5016373;28;20084;-47
2023/10/17 08:51:57;;;;;;;13.63;4.15;;;24.70;50.40;;;;;;5016164;28;20088;-52
2023/10/17 08:54:30;;;;;;;15.02;3.65;;;24.70;50.70;;;;;;5016106;28;20103;-52
2023/10/17 08:57:00;;;;;;;10.10;3.45;;;24.70;51.30;;;;;;5019322;28;20075;-54
2023/10/17 09:05:25;;;;;;;12.57;4.00;;;24.50;51.40;;;;;;5021553;28;20077;-50
2023/10/17 09:08:02;;;;;;;21.40;4.40;;;24.50;50.90;;;;;;5019280;28;20131;-53
2023/10/17 09:16:14;;;;;;;17.27;4.63;;;24.50;51.10;;;;;;4992930;28;20577;-51
2023/10/17 09:18:54;;;;;;;22.25;6.00;;;24.50;51.40;;;;;;5021130;28;20562;-52
2023/10/17 09:21:23;;;;;;;17.88;5.00;;;24.30;51.30;;;;;;5020237;28;20490;-55
2023/10/17 09:23:50;;;;;;;22.65;5.30;;;24.30;51.70;;;;;;5019990;28;20115;-50
2023/10/17 09:26:20;;;;;;;16.70;5.00;;;24.30;52.90;;;;;;5022089;28;20083;-50
2023/10/17 09:28:48;;;;;;;14.38;5.28;;;24.30;52.20;;;;;;5020454;28;20091;-49
2023/10/17 09:31:17;;;;;;;18.13;5.32;;;24.30;52.00;;;;;;5021512;28;20075;-48
2023/10/17 09:33:51;;;;;;;25.60;6.03;;;24.30;51.90;;;;;;5020295;28;20092;-52
2023/10/17 09:36:18;;;;;;;23.15;5.82;;;24.30;52.30;;;;;;5018886;28;20088;-53
2023/10/17 09:38:45;;;;;;;12.18;4.85;;;24.20;51.70;;;;;;5020395;28;20115;-49
2023/10/17 09:41:23;;;;;;;22.67;5.82;;;24.20;51.60;;;;;;5020809;28;20078;-53
2023/10/17 09:43:53;;;;;;;16.65;5.10;;;24.10;52.90;;;;;;5019440;28;20577;-51
2023/10/17 09:46:27;;;;;;;19.60;5.22;;;24.10;52.80;;;;;;5020171;28;20571;-50
2023/10/17 09:48:56;;;;;;;16.98;5.28;;;24.00;52.20;;;;;;5019508;28;20118;-52
2023/10/17 09:51:27;;;;;;;10.85;4.13;;;24.00;51.90;;;;;;5019810;28;20123;-53
2023/10/17 09:54:00;;;;;;;19.17;4.40;;;24.00;52.00;;;;;;5020755;28;20097;-50
2023/10/17 09:56:37;;;;;;;18.65;5.00;;;24.00;51.70;;;;;;5020117;28;20083;-56
2023/10/17 09:59:06;;;;;;;;;;;24.00;51.60;;;;;;5022485;28;20077;-52
2023/10/17 10:01:34;;;;;;;23.00;5.13;;;23.90;52.10;;;;;;5020136;28;19971;-48
2023/10/17 10:04:02;;;;;;;20.95;5.15;;;23.90;51.90;;;;;;5020491;28;20083;-51
2023/10/17 10:06:33;;;;;;;14.95;4.30;;;23.90;52.80;;;;;;5019648;28;20080;-48
2023/10/17 10:09:14;;;;;;;20.73;4.70;;;23.90;53.00;;;;;;5020544;28;20079;-51
2023/10/17 10:11:50;;;;;;;21.48;4.75;;;23.90;52.90;;;;;;5020770;28;20088;-50
2023/10/17 10:14:30;;;;;;;19.65;4.65;;;23.90;52.50;;;;;;5018377;28;20103;-51
2023/10/17 10:17:00;;;;;;;15.68;4.55;;;23.90;52.60;;;;;;5020975;28;20107;-52
2023/10/17 10:19:48;;;;;;;20.27;5.03;;;23.80;54.10;;;;;;5019622;28;20082;-54
2023/10/17 10:22:16;;;;;;;20.15;4.97;;;23.80;53.60;;;;;;5017208;28;20578;-49
2023/10/17 10:24:46;;;;;;;18.90;4.63;;;23.80;53.50;;;;;;5018620;28;20087;-51
2023/10/17 10:27:16;;;;;;;19.65;5.03;;;23.80;53.60;;;;;;5021455;28;20083;-53
2023/10/17 10:29:43;;;;;;;22.35;4.53;;;23.70;53.70;;;;;;5019698;28;20115;-50
2023/10/17 10:32:33;;;;;;;18.15;4.32;;;23.70;53.80;;;;;;5022355;28;20138;-55
2023/10/17 10:35:01;;;;;;;16.83;4.20;;;23.60;53.90;;;;;;5019778;28;20088;-56
2023/10/17 10:37:27;;;;;;;13.38;4.32;;;23.60;54.00;;;;;;5018505;28;20193;-52
2023/10/17 10:40:52;;;;;;;16.33;4.13;;;23.60;53.90;;;;;;5020329;28;20091;-54
2023/10/17 10:43:02;;;;;;;11.70;4.18;;;23.60;54.30;;;;;;5012717;28;20183;-51
2023/10/17 10:45:31;;;;;;;19.50;4.78;;;23.60;54.10;;;;;;5021021;28;20087;-53
2023/10/17 10:47:59;;;;;;;17.67;4.82;;;23.60;54.30;;;;;;5019191;28;20166;-52
2023/10/17 10:50:34;;;;;;;20.75;4.72;;;23.50;54.50;;;;;;5019978;28;20182;-52
2023/10/17 10:53:03;;;;;;;20.52;5.25;;;23.50;54.10;;;;;;5019678;28;20179;-50
2023/10/17 10:55:30;;;;;;;17.08;4.90;;;23.60;54.20;;;;;;5018626;28;20150;-50
2023/10/17 10:58:00;;;;;;;20.98;5.28;;;23.60;54.30;;;;;;5020750;28;20107;-50
2023/10/17 11:00:27;;;;;;;28.60;5.10;;;23.60;54.70;;;;;;5018769;28;20079;-49
2023/10/17 11:02:54;;;;;;;18.25;4.70;;;23.60;54.40;;;;;;5020988;28;20103;-53
2023/10/17 11:05:20;;;;;;;18.10;4.70;;;23.50;55.00;;;;;;5018393;28;20080;-54
2023/10/17 11:07:47;;;;;;;21.55;5.15;;;23.40;55.00;;;;;;5019898;28;20104;-52
2023/10/17 11:10:18;;;;;;;21.25;5.22;;;23.40;55.50;;;;;;5017283;28;20089;-52
2023/10/17 11:12:55;;;;;;;15.10;5.03;;;23.40;55.30;;;;;;5019151;28;20218;-49
2023/10/17 11:15:27;;;;;;;;;;;23.40;55.40;;;;;;5020666;28;20067;-53
2023/10/17 11:18:09;;;;;;;16.98;4.80;;;23.30;55.70;;;;;;5017317;28;20069;-51
2023/10/17 11:20:40;;;;;;;20.65;4.90;;;23.20;55.50;;;;;;5018978;28;20083;-52
2023/10/17 11:23:12;;;;;;;24.55;4.45;;;23.20;56.30;;;;;;5019347;28;20150;-53
2023/10/17 11:25:47;;;;;;;19.60;4.80;;;23.20;56.00;;;;;;5017939;28;20075;-51
2023/10/17 11:28:16;;;;;;;14.27;4.88;;;23.20;56.30;;;;;;5020584;28;20076;-50
2023/10/17 11:30:45;;;;;;;17.35;4.35;;;23.20;56.50;;;;;;5018808;28;20083;-52
2023/10/17 11:33:28;;;;;;;19.10;5.10;;;23.20;56.20;;;;;;5017272;28;20161;-50
2023/10/17 11:36:45;;;;;;;16.42;4.72;;;23.20;56.10;;;;;;5021384;28;20112;-51
2023/10/17 11:38:43;;;;;;;18.17;4.82;;;23.20;56.00;;;;;;5018413;28;20122;-51
2023/10/17 11:41:10;;;;;;;23.35;4.93;;;23.10;56.20;;;;;;5019221;28;20086;-54
2023/10/17 11:43:50;;;;;;;19.50;4.88;;;23.10;56.40;;;;;;5020090;28;20115;-52
2023/10/17 11:46:29;;;;;;;17.27;4.60;;;23.10;56.00;;;;;;5018093;28;20454;-53
2023/10/17 11:49:30;;;;;;;25.00;5.20;;;23.10;55.70;;;;;;5018216;28;20095;-55
2023/10/17 11:52:09;;;;;;;23.17;4.80;;;23.20;55.90;;;;;;5019554;28;20105;-53
2023/10/17 11:55:11;;;;;;;20.23;5.15;;;23.20;55.80;;;;;;5017962;28;20908;-52
2023/10/17 11:57:38;;;;;;;23.33;5.03;;;23.10;56.00;;;;;;5018336;28;20083;-52
2023/10/17 12:00:29;;;;;;;15.90;4.55;;;23.00;56.00;;;;;;5017063;28;20183;-54
2023/10/17 12:02:55;;;;;;;17.55;4.78;;;22.90;56.60;;;;;;5016924;28;20116;-53
2023/10/17 12:05:27;;;;;;;25.58;5.88;;;22.90;56.40;;;;;;5018424;28;20091;-50
2023/10/17 12:07:54;;;;;;;26.17;6.30;;;22.90;57.10;;;;;;5019798;28;20084;-53
2023/10/17 12:10:28;;;;;;;32.72;6.40;;;22.90;56.90;;;;;;5017784;28;20079;-51
2023/10/17 12:13:05;;;;;;;31.00;6.22;;;22.90;56.50;;;;;;5019181;28;20587;-53
2023/10/17 12:15:31;;;;;;;;;;;22.90;57.00;;;;;;5018388;28;20489;-54
2023/10/17 12:17:57;;;;;;;28.48;6.50;;;22.90;56.70;;;;;;5018969;28;19975;-54
2023/10/17 12:20:27;;;;;;;29.77;6.30;;;22.80;56.70;;;;;;5017909;28;20103;-52
2023/10/17 12:22:57;;;;;;;30.13;6.05;;;22.80;56.80;;;;;;5017628;28;20519;-56
2023/10/17 12:25:24;;;;;;;25.77;6.28;;;22.80;57.20;;;;;;5017951;28;20557;-55
2023/10/17 12:27:52;;;;;;;22.15;6.00;;;22.80;57.20;;;;;;5018083;28;20085;-53
2023/10/17 12:30:26;;;;;;;27.50;6.30;;;22.80;57.00;;;;;;5017282;28;20087;-52
2023/10/17 12:32:55;;;;;;;29.33;6.80;;;22.80;57.80;;;;;;5017175;28;20182;-54
2023/10/17 12:35:22;;;;;;;36.70;7.45;;;22.70;57.60;;;;;;5019060;28;20071;-51
2023/10/17 12:37:55;;;;;;;32.78;6.93;;;22.60;57.50;;;;;;5016851;28;20082;-56
2023/10/17 12:40:23;;;;;;;37.70;8.30;;;22.60;58.00;;;;;;5018403;28;20560;-54
2023/10/17 12:42:56;;;;;;;53.17;8.60;;;22.60;58.10;;;;;;5018243;28;20093;-54
2023/10/17 12:45:24;;;;;;;41.97;8.40;;;22.50;58.20;;;;;;5017269;28;20626;-50
2023/10/17 12:47:51;;;;;;;48.00;9.15;;;22.60;58.00;;;;;;5018563;28;20107;-54
2023/10/17 12:50:18;;;;;;;46.30;8.30;;;22.50;57.70;;;;;;5016557;28;20088;-51
2023/10/17 12:52:44;;;;;;;45.30;9.13;;;22.50;58.00;;;;;;5015784;28;20462;-50
2023/10/17 12:55:11;;;;;;;32.53;7.97;;;22.50;58.20;;;;;;5018066;28;20077;-55
2023/10/17 12:57:38;;;;;;;31.27;7.65;;;22.60;57.90;;;;;;5017390;28;20076;-56
2023/10/17 13:00:14;;;;;;;47.50;9.55;;;22.60;57.70;;;;;;5017669;28;20076;-48
2023/10/17 13:02:41;;;;;;;43.42;8.27;;;22.60;57.90;;;;;;5018085;28;20079;-51
2023/10/17 13:05:12;;;;;;;49.13;9.23;;;22.50;57.10;;;;;;5017658;28;20139;-50
2023/10/17 13:07:39;;;;;;;39.58;8.93;;;22.40;57.40;;;;;;5018193;28;20080;-52
2023/10/17 13:10:07;;;;;;;35.38;9.48;;;22.50;58.00;;;;;;5016176;28;20085;-51
2023/10/17 13:12:34;;;;;;;48.47;9.13;;;22.50;58.20;;;;;;5017981;28;20104;-53
2023/10/17 13:15:00;;;;;;;44.78;9.63;;;22.50;58.00;;;;;;5017732;28;20149;-55
2023/10/17 13:17:28;;;;;;;56.95;11.02;;;22.40;58.60;;;;;;5018395;28;20118;-54
2023/10/17 13:19:57;;;;;;;52.40;11.00;;;22.40;58.00;;;;;;5016551;28;20485;-52
2023/10/17 13:22:23;;;;;;;33.38;10.60;;;22.20;57.30;;;;;;5017069;28;20100;-51
2023/10/17 13:24:50;;;;;;;47.95;11.70;;;22.00;57.50;;;;;;5016226;28;20095;-53
2023/10/17 13:27:17;;;;;;;53.60;11.52;;;21.90;58.00;;;;;;5018643;28;20077;-48
2023/10/17 13:29:43;;;;;;;48.30;11.25;;;21.90;58.60;;;;;;5016472;28;20168;-53
2023/10/17 13:32:10;;;;;;;51.47;11.98;;;22.00;58.70;;;;;;5016802;28;20081;-50
2023/10/17 13:34:39;;;;;;;59.95;12.30;;;21.90;58.50;;;;;;5016134;28;20984;-52
2023/10/17 13:37:07;;;;;;;58.45;12.15;;;21.80;58.60;;;;;;5017103;28;20076;-51
2023/10/17 13:39:34;;;;;;;51.90;12.52;;;21.90;59.30;;;;;;5015831;28;20064;-51
2023/10/17 13:42:04;;;;;;;59.30;11.88;;;21.80;58.80;;;;;;5016670;28;20074;-53
2023/10/17 13:44:31;;;;;;;56.95;12.00;;;21.80;58.80;;;;;;5020583;28;20579;-52
2023/10/17 13:46:57;;;;;;;64.97;13.77;;;21.80;59.40;;;;;;5020733;28;20081;-51
2023/10/17 13:49:24;;;;;;;98.50;14.80;;;21.80;58.80;;;;;;5020761;28;20170;-52
2023/10/17 13:51:50;;;;;;;61.78;12.75;;;21.80;58.90;;;;;;5019457;28;20088;-53
2023/10/17 13:54:17;;;;;;;68.65;13.52;;;21.80;58.50;;;;;;5024727;28;20101;-50
2023/10/17 13:56:43;;;;;;;66.22;14.35;;;21.80;58.70;;;;;;5014480;28;20494;-50
2023/10/17 13:59:11;;;;;;;87.05;16.05;;;21.90;59.10;;;;;;5014088;28;20140;-48
2023/10/17 14:01:46;;;;;;;90.15;18.92;;;21.90;58.90;;;;;;5011239;28;20142;-52
2023/10/17 14:04:13;;;;;;;75.53;15.52;;;21.90;58.70;;;;;;5018774;28;20235;-51
2023/10/17 14:06:42;;;;;;;89.32;18.00;;;21.90;58.70;;;;;;5020616;28;20085;-48
2023/10/17 14:09:14;;;;;;;90.70;20.10;;;21.90;59.10;;;;;;5019484;28;20572;-52
2023/10/17 14:11:43;;;;;;;105.00;20.60;;;21.90;59.10;;;;;;5029929;28;20102;-53
2023/10/17 14:14:11;;;;;;;115.43;23.95;;;21.90;59.10;;;;;;5010915;28;20109;-58
2023/10/17 14:16:42;;;;;;;127.95;24.52;;;22.00;59.00;;;;;;5010970;28;20083;-55
2023/10/17 14:19:18;;;;;;;132.45;26.23;;;22.00;59.40;;;;;;5010751;28;20089;-54
2023/10/17 14:22:01;;;;;;;129.37;26.60;;;22.10;59.30;;;;;;5022371;28;20106;-51
2023/10/17 14:24:29;;;;;;;152.85;31.15;;;22.10;59.70;;;;;;5017122;28;20092;-50
2023/10/17 14:26:57;;;;;;;226.65;36.85;;;22.20;60.10;;;;;;5010645;28;20123;-52
2023/10/17 14:29:24;;;;;;;190.40;35.33;;;22.30;60.10;;;;;;5015401;28;20111;-51
2023/10/17 14:31:51;;;;;;;206.38;35.92;;;22.40;58.20;;;;;;5015708;28;20085;-57
2023/10/17 14:34:17;;;;;;;229.80;38.75;;;22.40;58.50;;;;;;5013366;28;20135;-54
2023/10/17 14:36:46;;;;;;;228.15;44.15;;;22.50;59.30;;;;;;5016183;28;20444;-54
2023/10/17 14:39:13;;;;;;;282.58;47.08;;;22.60;59.00;;;;;;5015315;28;20080;-49
2023/10/17 14:41:40;;;;;;;230.60;44.83;;;22.70;59.50;;;;;;5018472;28;20080;-53
2023/10/17 14:44:06;;;;;;;250.70;45.45;;;22.80;60.10;;;;;;5016192;28;20080;-55
2023/10/17 14:46:33;;;;;;;236.45;45.38;;;22.80;59.00;;;;;;5013823;28;20096;-52
2023/10/17 14:49:01;;;;;;;230.65;44.78;;;22.90;59.10;;;;;;5017487;28;20087;-52
2023/10/17 14:51:28;;;;;;;214.55;44.25;;;23.00;59.50;;;;;;5016650;28;20088;-53
2023/10/17 14:53:55;;;;;;;264.05;46.95;;;23.10;58.00;;;;;;5015377;28;20118;-50
2023/10/17 14:56:22;;;;;;;247.70;46.25;;;23.20;57.80;;;;;;5015500;28;20092;-53
2023/10/17 14:58:52;;;;;;;230.38;43.25;;;23.30;59.10;;;;;;5021577;28;20096;-54
2023/10/17 15:01:19;;;;;;;237.52;47.28;;;23.40;58.30;;;;;;5017900;28;20077;-57
2023/10/17 15:03:46;;;;;;;187.18;41.53;;;23.50;60.10;;;;;;5016015;28;20075;-54
2023/10/17 15:06:14;;;;;;;185.32;39.65;;;23.60;58.90;;;;;;5014963;28;20171;-53
2023/10/17 15:08:41;;;;;;;186.70;38.63;;;23.60;57.60;;;;;;5016817;28;20578;-52
2023/10/17 15:11:10;;;;;;;165.00;36.58;;;23.80;56.70;;;;;;5014385;28;20538;-49
2023/10/17 15:13:37;;;;;;;171.43;35.58;;;23.90;57.30;;;;;;5020122;28;20663;-55
2023/10/17 15:16:20;;;;;;;198.90;37.45;;;24.00;57.50;;;;;;5016009;28;20090;-56
2023/10/17 15:18:51;;;;;;;233.43;38.65;;;24.10;54.50;;;;;;5026431;28;20552;-55
2023/10/17 15:21:23;;;;;;;169.88;37.53;;;24.30;55.00;;;;;;5012165;28;20075;-57
2023/10/17 15:23:53;;;;;;;187.15;36.00;;;24.40;55.90;;;;;;5015376;28;20086;-55
2023/10/17 15:26:21;;;;;;;163.40;32.10;;;24.50;55.40;;;;;;5010389;28;20079;-57
2023/10/17 15:28:48;;;;;;;147.30;29.50;;;24.70;54.70;;;;;;5018157;28;20148;-53